メインページ
METAR-TAF:

METAR-TAF

空港 :

ヌアクショット空港

ヌアクショット, モーリタニア

緯度: 18-18-36N, 経度: 015-58-11W, 海抜: 3m

現時点の気象観測

当レポートは1時間11分前の12:00(UTC)に作成
東/北東の風 16kt
気温 35°C
湿度 18%
気圧 1014 hPa
視程: 2800m
風砂

METAR: GQNO 061200Z 07016KT 2800 BLSA NSC 35/07 Q1014 TEMPO 1400 BLSA

時間: 13:11 (13:11 UTC)

予報

当レポートは2時間11分前の11:00(UTC)に作成
予報は06日の 12時(UTC)から 07日の 18時(UTC)まで有効
北東の風 15kt
視程: 2400m
風砂
確率 30% :
06日の 13時(UTC)から 06日の 16時(UTC)まで一時的に
視程: 1400m
風砂
06日の 17時(UTC)から 06日の 19時(UTC)まで徐々に
北/北西の風 12kt
視程: 6000m
07日の 09時(UTC)から 07日の 12時(UTC)まで徐々に
北東の風 15kt
確率 40% :
07日の 10時(UTC)から 07日の 16時(UTC)まで一時的に
視程: 3000m
風砂

TAF: GQNO 061100Z 0612/0718 05015KT 2400 BLSA NSC PROB30 TEMPO 0613/0616 1400 BLSA BECMG 0617/0619 34012KT 6000 NSW BECMG 0709/0712 05015KT PROB40 TEMPO 0710/0716 3000 BLSA

4,000以上の空港の気象観測と天気予報(METAR報とTAF報)

利用可能な観測所は地図上に黄色い丸と赤い丸で示す。

丸の上にカーソルを重ねると観測所名を参照できる。

次にクリックすると気象観測と天気予報を参照できる。

マップの切り替え:黒色「×」印の緑ボタンをクリックして拡大、「-」印の緑ボタンをクリックして縮小、緑色の三角印をクリックして隣りの地図に切り替え


METAR-TAF: